Time,TemperatureF,DewpointF,PressureIn,WindDirection,WindDirectionDegrees,WindSpeedMPH,WindSpeedGustMPH,Humidity,HourlyPrecipIn,Conditions,Clouds,dailyrainin,SoftwareType,DateUTC
2013-07-21 00:01:00,69.1,44.8,29.89,WSW,247,0.0,0.0,42,0.00,,,0.00,WUHU21623XXSP,2013-07-21 07:01:00,
2013-07-21 00:06:00,68.7,45.1,29.89,WSW,247,0.0,0.0,43,0.00,,,0.00,WUHU21623XXSP,2013-07-21 07:06:00,
2013-07-21 00:11:00,67.8,44.3,29.88,NW,315,0.0,0.0,43,0.00,,,0.00,WUHU21623XXSP,2013-07-21 07:11:00,
2013-07-21 00:16:00,67.1,44.3,29.88,NW,315,0.0,0.0,44,0.00,,,0.00,WUHU21623XXSP,2013-07-21 07:16:00,
2013-07-21 00:21:00,66.4,43.6,29.88,NW,315,0.0,0.0,44,0.00,,,0.00,WUHU21623XXSP,2013-07-21 07:21:00,
2013-07-21 00:26:00,64.9,44.0,29.88,NW,315,0.0,0.0,47,0.00,,,0.00,WUHU21623XXSP,2013-07-21 07:26:00,
2013-07-21 00:31:00,63.9,43.7,29.88,NW,315,0.0,0.0,48,0.00,,,0.00,WUHU21623XXSP,2013-07-21 07:31:00,
2013-07-21 00:36:00,63.1,43.5,29.88,NW,315,0.0,0.0,49,0.00,,,0.00,WUHU21623XXSP,2013-07-21 07:36:00,
2013-07-21 00:41:00,62.2,43.8,29.88,NW,315,0.0,0.0,51,0.00,,,0.00,WUHU21623XXSP,2013-07-21 07:41:00,
2013-07-21 00:46:00,61.3,42.4,29.88,NW,315,0.0,0.0,50,0.00,,,0.00,WUHU21623XXSP,2013-07-21 07:46:00,
2013-07-21 00:51:00,60.4,42.1,29.88,NW,315,0.0,0.0,51,0.00,,,0.00,WUHU21623XXSP,2013-07-21 07:51:00,
2013-07-21 00:56:00,59.5,41.8,29.88,NW,315,0.0,0.0,52,0.00,,,0.00,WUHU21623XXSP,2013-07-21 07:56:00,
2013-07-21 01:01:00,59.4,41.7,29.88,NW,315,0.0,0.0,52,0.00,,,0.00,WUHU21623XXSP,2013-07-21 08:01:00,
2013-07-21 01:06:00,58.8,42.2,29.87,NW,315,0.0,0.0,54,0.00,,,0.00,WUHU21623XXSP,2013-07-21 08:06:00,
2013-07-21 01:11:00,58.8,42.2,29.87,NW,315,0.0,0.0,54,0.00,,,0.00,WUHU21623XXSP,2013-07-21 08:11:00,
2013-07-21 01:16:00,58.8,42.2,29.87,WNW,292,0.0,0.0,54,0.00,,,0.00,WUHU21623XXSP,2013-07-21 08:16:00,
2013-07-21 01:21:00,58.8,43.1,29.87,WNW,292,0.0,0.0,56,0.00,,,0.00,WUHU21623XXSP,2013-07-21 08:21:00,
2013-07-21 01:26:00,57.9,42.3,29.87,WNW,292,0.0,0.0,56,0.00,,,0.00,WUHU21623XXSP,2013-07-21 08:26:00,
2013-07-21 01:31:00,57.4,41.8,29.87,WNW,292,0.0,0.0,56,0.00,,,0.00,WUHU21623XXSP,2013-07-21 08:31:00,
2013-07-21 01:36:00,57.0,41.9,29.87,WNW,292,0.0,0.0,57,0.00,,,0.00,WUHU21623XXSP,2013-07-21 08:36:00,
2013-07-21 01:41:00,56.8,41.7,29.87,WNW,292,0.0,0.0,57,0.00,,,0.00,WUHU21623XXSP,2013-07-21 08:41:00,
2013-07-21 01:46:00,56.5,41.4,29.87,WNW,292,0.0,0.0,57,0.00,,,0.00,WUHU21623XXSP,2013-07-21 08:46:00,
2013-07-21 01:51:00,56.5,42.4,29.87,West,270,0.0,0.0,59,0.00,,,0.00,WUHU21623XXSP,2013-07-21 08:51:00,
2013-07-21 01:56:00,56.3,43.1,29.87,South,180,0.0,0.0,61,0.00,,,0.00,WUHU21623XXSP,2013-07-21 08:56:00,
2013-07-21 02:01:00,56.1,42.9,29.87,South,180,2.0,2.0,61,0.00,,,0.00,WUHU21623XXSP,2013-07-21 09:01:00,
2013-07-21 02:06:00,56.1,42.9,29.87,South,180,2.0,2.0,61,0.00,,,0.00,WUHU21623XXSP,2013-07-21 09:06:00,
2013-07-21 02:11:00,56.7,43.9,29.88,SSW,202,0.0,2.0,62,0.00,,,0.00,WUHU21623XXSP,2013-07-21 09:11:00,
2013-07-21 02:16:00,56.3,43.9,29.88,SSW,202,0.0,0.0,63,0.00,,,0.00,WUHU21623XXSP,2013-07-21 09:16:00,
2013-07-21 02:21:00,55.9,43.1,29.88,SSW,202,0.0,0.0,62,0.00,,,0.00,WUHU21623XXSP,2013-07-21 09:21:00,
2013-07-21 02:26:00,56.3,43.5,29.88,SSW,202,0.0,0.0,62,0.00,,,0.00,WUHU21623XXSP,2013-07-21 09:26:00,
2013-07-21 02:31:00,57.0,43.7,29.88,SSW,202,0.0,0.0,61,0.00,,,0.00,WUHU21623XXSP,2013-07-21 09:31:00,
2013-07-21 02:36:00,57.0,43.7,29.88,SSW,202,0.0,0.0,61,0.00,,,0.00,WUHU21623XXSP,2013-07-21 09:36:00,
2013-07-21 02:41:00,56.1,42.9,29.88,SSW,202,0.0,0.0,61,0.00,,,0.00,WUHU21623XXSP,2013-07-21 09:41:00,
2013-07-21 02:46:00,55.8,42.6,29.87,SSW,202,0.0,0.0,61,0.00,,,0.00,WUHU21623XXSP,2013-07-21 09:46:00,
2013-07-21 02:51:00,54.9,42.6,29.87,SSW,202,0.0,0.0,63,0.00,,,0.00,WUHU21623XXSP,2013-07-21 09:51:00,
2013-07-21 02:56:00,54.0,42.9,29.88,SSW,202,0.0,0.0,66,0.00,,,0.00,WUHU21623XXSP,2013-07-21 09:56:00,
2013-07-21 03:01:00,53.4,42.0,29.88,SSW,202,0.0,0.0,65,0.00,,,0.00,WUHU21623XXSP,2013-07-21 10:01:00,
2013-07-21 03:06:00,53.4,42.4,29.88,SSW,202,0.0,0.0,66,0.00,,,0.00,WUHU21623XXSP,2013-07-21 10:06:00,
2013-07-21 03:11:00,53.4,42.8,29.88,SSW,202,0.0,0.0,67,0.00,,,0.00,WUHU21623XXSP,2013-07-21 10:11:00,
2013-07-21 03:16:00,53.2,42.2,29.88,SSW,202,0.0,0.0,66,0.00,,,0.00,WUHU21623XXSP,2013-07-21 10:16:00,
2013-07-21 03:21:00,53.4,42.8,29.88,SSW,202,0.0,0.0,67,0.00,,,0.00,WUHU21623XXSP,2013-07-21 10:21:00,
2013-07-21 03:26:00,53.2,43.0,29.88,SSW,202,0.0,0.0,68,0.00,,,0.00,WUHU21623XXSP,2013-07-21 10:26:00,
2013-07-21 03:31:00,52.9,42.7,29.88,SSW,202,0.0,0.0,68,0.00,,,0.00,WUHU21623XXSP,2013-07-21 10:31:00,
2013-07-21 03:36:00,52.7,42.9,29.88,SSW,202,0.0,0.0,69,0.00,,,0.00,WUHU21623XXSP,2013-07-21 10:36:00,
2013-07-21 03:41:00,52.9,42.7,29.88,SSW,202,0.0,0.0,68,0.00,,,0.00,WUHU21623XXSP,2013-07-21 10:41:00,
2013-07-21 03:46:00,53.4,43.5,29.88,SSW,202,0.0,0.0,69,0.00,,,0.00,WUHU21623XXSP,2013-07-21 10:46:00,
2013-07-21 03:51:00,53.4,43.1,29.88,SSW,202,0.0,1.8,68,0.00,,,0.00,WUHU21623XXSP,2013-07-21 10:51:00,
2013-07-21 03:56:00,53.8,43.1,29.88,SSW,202,0.0,1.8,67,0.00,,,0.00,WUHU21623XXSP,2013-07-21 10:56:00,
2013-07-21 04:01:00,54.0,43.3,29.88,SSW,202,0.0,0.0,67,0.00,,,0.00,WUHU21623XXSP,2013-07-21 11:01:00,
2013-07-21 04:06:00,54.5,43.4,29.88,SSW,202,0.0,0.0,66,0.00,,,0.00,WUHU21623XXSP,2013-07-21 11:06:00,
2013-07-21 04:11:00,54.7,43.2,29.88,SSW,202,0.0,0.0,65,0.00,,,0.00,WUHU21623XXSP,2013-07-21 11:11:00,
2013-07-21 04:16:00,54.1,43.0,29.88,SSW,202,7.8,7.8,66,0.00,,,0.00,WUHU21623XXSP,2013-07-21 11:16:00,
2013-07-21 04:21:00,54.7,43.6,29.88,SSW,202,4.7,8.3,66,0.00,,,0.00,WUHU21623XXSP,2013-07-21 11:21:00,
2013-07-21 04:26:00,54.5,43.4,29.89,South,180,2.2,8.3,66,0.00,,,0.00,WUHU21623XXSP,2013-07-21 11:26:00,
2013-07-21 04:31:00,53.4,43.5,29.89,SSW,202,2.7,4.9,69,0.00,,,0.00,WUHU21623XXSP,2013-07-21 11:31:00,
2013-07-21 04:36:00,53.4,43.1,29.89,SSW,202,2.2,2.7,68,0.00,,,0.00,WUHU21623XXSP,2013-07-21 11:36:00,
2013-07-21 04:41:00,54.3,43.2,29.89,SW,225,0.0,5.1,66,0.00,,,0.00,WUHU21623XXSP,2013-07-21 11:41:00,
2013-07-21 04:46:00,54.9,43.0,29.89,SW,225,4.5,5.1,64,0.00,,,0.00,WUHU21623XXSP,2013-07-21 11:46:00,
2013-07-21 04:51:00,55.2,43.3,29.89,SW,225,8.7,8.7,64,0.00,,,0.00,WUHU21623XXSP,2013-07-21 11:51:00,
2013-07-21 04:56:00,55.6,43.2,29.89,SSW,202,0.0,8.7,63,0.00,,,0.00,WUHU21623XXSP,2013-07-21 11:56:00,
2013-07-21 05:01:00,55.6,42.8,29.89,SSW,202,0.0,2.9,62,0.00,,,0.00,WUHU21623XXSP,2013-07-21 12:01:00,
2013-07-21 05:06:00,55.2,42.9,29.89,SSW,202,0.0,0.0,63,0.00,,,0.00,WUHU21623XXSP,2013-07-21 12:06:00,
2013-07-21 05:11:00,54.7,42.4,29.89,SSW,202,0.0,0.0,63,0.00,,,0.00,WUHU21623XXSP,2013-07-21 12:11:00,
2013-07-21 05:16:00,54.3,42.4,29.90,SSW,202,1.6,1.6,64,0.00,,,0.00,WUHU21623XXSP,2013-07-21 12:16:00,
2013-07-21 05:21:00,53.8,41.9,29.90,SW,225,0.0,1.6,64,0.00,,,0.00,WUHU21623XXSP,2013-07-21 12:21:00,
2013-07-21 05:26:00,53.4,41.6,29.90,SW,225,0.0,0.0,64,0.00,,,0.00,WUHU21623XXSP,2013-07-21 12:26:00,
2013-07-21 05:31:00,52.9,41.5,29.90,SW,225,0.0,0.0,65,0.00,,,0.00,WUHU21623XXSP,2013-07-21 12:31:00,
2013-07-21 05:36:00,53.8,42.7,29.90,SW,225,5.6,5.8,66,0.00,,,0.00,WUHU21623XXSP,2013-07-21 12:36:00,
2013-07-21 05:41:00,55.0,43.5,29.90,SW,225,4.0,5.8,65,0.00,,,0.00,WUHU21623XXSP,2013-07-21 12:41:00,
2013-07-21 05:46:00,55.9,43.9,29.91,SW,225,0.9,4.0,64,0.00,,,0.00,WUHU21623XXSP,2013-07-21 12:46:00,
2013-07-21 05:51:00,58.1,45.2,29.90,SSW,202,2.0,2.2,62,0.00,,,0.00,WUHU21623XXSP,2013-07-21 12:51:00,
2013-07-21 05:56:00,58.8,45.0,29.90,SSW,202,1.6,2.0,60,0.00,,,0.00,WUHU21623XXSP,2013-07-21 12:56:00,
2013-07-21 06:01:00,60.6,46.2,29.91,SSW,202,1.6,3.1,59,0.00,,,0.00,WUHU21623XXSP,2013-07-21 13:01:00,
2013-07-21 06:06:00,61.5,46.6,29.91,South,180,0.0,3.1,58,0.00,,,0.00,WUHU21623XXSP,2013-07-21 13:06:00,
2013-07-21 06:11:00,63.0,48.5,29.91,WNW,292,0.0,0.0,59,0.00,,,0.00,WUHU21623XXSP,2013-07-21 13:11:00,
2013-07-21 06:16:00,64.6,49.0,29.91,WNW,292,0.0,0.0,57,0.00,,,0.00,WUHU21623XXSP,2013-07-21 13:16:00,
2013-07-21 06:21:00,66.7,50.0,29.91,WNW,292,0.0,0.0,55,0.00,,,0.00,WUHU21623XXSP,2013-07-21 13:21:00,
2013-07-21 06:26:00,68.7,51.4,29.91,WNW,292,0.0,0.0,54,0.00,,,0.00,WUHU21623XXSP,2013-07-21 13:26:00,
2013-07-21 06:31:00,70.5,51.5,29.91,West,270,0.0,0.0,51,0.00,,,0.00,WUHU21623XXSP,2013-07-21 13:31:00,
2013-07-21 06:36:00,69.6,50.1,29.91,SW,225,0.0,0.0,50,0.00,,,0.00,WUHU21623XXSP,2013-07-21 13:36:00,
2013-07-21 06:41:00,70.2,50.6,29.91,SW,225,0.0,0.0,50,0.00,,,0.00,WUHU21623XXSP,2013-07-21 13:41:00,
2013-07-21 06:46:00,71.2,51.0,29.91,SSW,202,0.0,0.0,49,0.00,,,0.00,WUHU21623XXSP,2013-07-21 13:46:00,
2013-07-21 06:51:00,71.4,51.2,29.91,SSW,202,0.0,0.0,49,0.00,,,0.00,WUHU21623XXSP,2013-07-21 13:51:00,
2013-07-21 06:56:00,72.0,51.7,29.91,SSW,202,0.0,0.0,49,0.00,,,0.00,WUHU21623XXSP,2013-07-21 13:56:00,
2013-07-21 07:01:00,72.0,51.7,29.91,South,180,0.0,0.0,49,0.00,,,0.00,WUHU21623XXSP,2013-07-21 14:01:00,
2013-07-21 07:06:00,70.0,49.9,29.92,SSW,202,0.0,0.0,49,0.00,,,0.00,WUHU21623XXSP,2013-07-21 14:06:00,
2013-07-21 07:11:00,69.6,50.1,29.92,South,180,0.0,0.0,50,0.00,,,0.00,WUHU21623XXSP,2013-07-21 14:11:00,
2013-07-21 07:16:00,70.7,51.1,29.92,SSW,202,0.0,0.0,50,0.00,,,0.00,WUHU21623XXSP,2013-07-21 14:16:00,
2013-07-21 07:21:00,72.3,52.0,29.93,South,180,0.0,0.0,49,0.00,,,0.00,WUHU21623XXSP,2013-07-21 14:21:00,
2013-07-21 07:26:00,72.3,50.8,29.92,South,180,0.0,0.0,47,0.00,,,0.00,WUHU21623XXSP,2013-07-21 14:26:00,
2013-07-21 07:31:00,71.4,51.2,29.92,South,180,7.4,7.4,49,0.00,,,0.00,WUHU21623XXSP,2013-07-21 14:31:00,
2013-07-21 07:36:00,71.4,51.2,29.92,SSW,202,2.5,7.4,49,0.00,,,0.00,WUHU21623XXSP,2013-07-21 14:36:00,
2013-07-21 07:41:00,72.3,52.0,29.93,SSW,202,0.0,2.5,49,0.00,,,0.00,WUHU21623XXSP,2013-07-21 14:41:00,
2013-07-21 07:46:00,73.8,52.8,29.93,SSW,202,0.0,2.5,48,0.00,,,0.00,WUHU21623XXSP,2013-07-21 14:46:00,
2013-07-21 07:51:00,74.1,53.1,29.92,SSW,202,0.0,4.9,48,0.00,,,0.00,WUHU21623XXSP,2013-07-21 14:51:00,
2013-07-21 07:56:00,73.9,52.9,29.93,South,180,0.0,4.9,48,0.00,,,0.00,WUHU21623XXSP,2013-07-21 14:56:00,
2013-07-21 08:01:00,73.2,52.3,29.93,SSW,202,0.0,0.0,48,0.00,,,0.00,WUHU21623XXSP,2013-07-21 15:01:00,
2013-07-21 08:06:00,72.9,52.6,29.93,SW,225,0.0,1.3,49,0.00,,,0.00,WUHU21623XXSP,2013-07-21 15:06:00,
2013-07-21 08:11:00,73.9,54.1,29.93,South,180,0.0,1.3,50,0.00,,,0.00,WUHU21623XXSP,2013-07-21 15:11:00,
2013-07-21 08:16:00,75.4,54.9,29.93,West,270,0.0,0.0,49,0.00,,,0.00,WUHU21623XXSP,2013-07-21 15:16:00,
2013-07-21 08:21:00,78.6,56.0,29.93,SSW,202,0.0,0.0,46,0.00,,,0.00,WUHU21623XXSP,2013-07-21 15:21:00,
2013-07-21 08:26:00,80.2,56.8,29.93,SSW,202,0.0,1.6,45,0.00,,,0.00,WUHU21623XXSP,2013-07-21 15:26:00,
2013-07-21 08:31:00,80.8,56.1,29.93,SW,225,5.8,7.4,43,0.00,,,0.00,WUHU21623XXSP,2013-07-21 15:31:00,
2013-07-21 08:36:00,79.9,55.3,29.93,South,180,0.0,7.4,43,0.00,,,0.00,WUHU21623XXSP,2013-07-21 15:36:00,
2013-07-21 08:41:00,79.7,56.4,29.94,WSW,247,0.0,2.5,45,0.00,,,0.00,WUHU21623XXSP,2013-07-21 15:41:00,
2013-07-21 08:46:00,80.2,56.2,29.94,SW,225,4.3,8.5,44,0.00,,,0.00,WUHU21623XXSP,2013-07-21 15:46:00,
2013-07-21 08:51:00,81.3,56.5,29.94,SW,225,7.6,8.5,43,0.00,,,0.00,WUHU21623XXSP,2013-07-21 15:51:00,
2013-07-21 08:56:00,81.5,57.4,29.94,SW,225,0.0,7.6,44,0.00,,,0.00,WUHU21623XXSP,2013-07-21 15:56:00,
2013-07-21 09:01:00,81.5,56.0,29.94,SW,225,1.6,6.9,42,0.00,,,0.00,WUHU21623XXSP,2013-07-21 16:01:00,
2013-07-21 09:06:00,82.2,56.7,29.94,SSW,202,7.6,7.6,42,0.00,,,0.00,WUHU21623XXSP,2013-07-21 16:06:00,
2013-07-21 09:11:00,82.0,56.5,29.94,WSW,247,3.8,7.6,42,0.00,,,0.00,WUHU21623XXSP,2013-07-21 16:11:00,
2013-07-21 09:16:00,82.2,56.7,29.94,WSW,247,2.5,3.8,42,0.00,,,0.00,WUHU21623XXSP,2013-07-21 16:16:00,
2013-07-21 09:21:00,80.8,56.1,29.94,South,180,4.0,8.1,43,0.00,,,0.00,WUHU21623XXSP,2013-07-21 16:21:00,
2013-07-21 09:26:00,81.1,55.7,29.94,SSW,202,7.2,8.1,42,0.00,,,0.00,WUHU21623XXSP,2013-07-21 16:26:00,
2013-07-21 09:31:00,80.4,55.7,29.94,SW,225,5.4,7.2,43,0.00,,,0.00,WUHU21623XXSP,2013-07-21 16:31:00,
2013-07-21 09:36:00,80.6,55.9,29.94,SW,225,2.5,7.4,43,0.00,,,0.00,WUHU21623XXSP,2013-07-21 16:36:00,
2013-07-21 09:41:00,81.9,57.7,29.94,SW,225,0.0,7.4,44,0.00,,,0.00,WUHU21623XXSP,2013-07-21 16:41:00,
2013-07-21 09:46:00,83.1,57.5,29.94,SSW,202,8.3,8.3,42,0.00,,,0.00,WUHU21623XXSP,2013-07-21 16:46:00,
2013-07-21 09:51:00,83.7,57.3,29.94,South,180,7.2,8.3,41,0.00,,,0.00,WUHU21623XXSP,2013-07-21 16:51:00,
2013-07-21 09:56:00,83.8,58.1,29.94,SW,225,0.0,7.4,42,0.00,,,0.00,WUHU21623XXSP,2013-07-21 16:56:00,
2013-07-21 10:01:00,84.4,57.2,29.94,WSW,247,6.5,6.5,40,0.00,,,0.00,WUHU21623XXSP,2013-07-21 17:01:00,
2013-07-21 10:06:00,84.7,58.2,29.94,SW,225,6.5,8.1,41,0.00,,,0.00,WUHU21623XXSP,2013-07-21 17:06:00,
2013-07-21 10:11:00,85.1,57.9,29.94,South,180,7.6,8.1,40,0.00,,,0.00,WUHU21623XXSP,2013-07-21 17:11:00,
2013-07-21 10:16:00,83.8,57.4,29.94,West,270,3.6,7.6,41,0.00,,,0.00,WUHU21623XXSP,2013-07-21 17:16:00,
2013-07-21 10:21:00,85.3,58.1,29.94,SW,225,6.5,7.8,40,0.00,,,0.00,WUHU21623XXSP,2013-07-21 17:21:00,
2013-07-21 10:26:00,85.3,58.8,29.94,SW,225,0.0,7.8,41,0.00,,,0.00,WUHU21623XXSP,2013-07-21 17:26:00,
2013-07-21 10:31:00,86.2,58.9,29.94,SSW,202,2.7,8.5,40,0.00,,,0.00,WUHU21623XXSP,2013-07-21 17:31:00,
2013-07-21 10:36:00,84.9,58.4,29.94,West,270,0.0,8.5,41,0.00,,,0.00,WUHU21623XXSP,2013-07-21 17:36:00,
2013-07-21 10:41:00,86.2,58.9,29.94,West,270,8.1,8.3,40,0.00,,,0.00,WUHU21623XXSP,2013-07-21 17:41:00,
2013-07-21 10:46:00,87.1,59.7,29.94,West,270,6.3,8.1,40,0.00,,,0.00,WUHU21623XXSP,2013-07-21 17:46:00,
2013-07-21 10:51:00,86.7,58.6,29.94,West,270,5.6,7.8,39,0.00,,,0.00,WUHU21623XXSP,2013-07-21 17:51:00,
2013-07-21 10:56:00,86.7,58.6,29.94,West,270,5.1,8.1,39,0.00,,,0.00,WUHU21623XXSP,2013-07-21 17:56:00,
2013-07-21 11:01:00,86.9,58.8,29.94,SSW,202,7.8,8.1,39,0.00,,,0.00,WUHU21623XXSP,2013-07-21 18:01:00,
2013-07-21 11:06:00,87.1,58.2,29.94,West,270,0.0,7.8,38,0.00,,,0.00,WUHU21623XXSP,2013-07-21 18:06:00,
2013-07-21 11:11:00,87.6,59.4,29.93,SW,225,8.3,8.3,39,0.00,,,0.00,WUHU21623XXSP,2013-07-21 18:11:00,
2013-07-21 11:16:00,88.0,58.2,29.94,SW,225,8.3,8.5,37,0.00,,,0.00,WUHU21623XXSP,2013-07-21 18:16:00,
2013-07-21 11:19:00,88.0,59.0,29.93,SW,225,0.0,8.5,38,0.00,,,0.00,WUHU21623XXSP,2013-07-21 18:19:00,
2013-07-21 11:23:00,88.3,59.3,29.94,WSW,247,7.6,8.3,38,0.00,,,0.00,WUHU21623XXSP,2013-07-21 18:23:00,
2013-07-21 11:29:00,88.9,59.0,29.94,WSW,247,8.9,8.9,37,0.00,,,0.00,WUHU21623XXSP,2013-07-21 18:29:00,
2013-07-21 11:50:00,88.9,59.0,29.93,West,270,0.0,7.6,37,0.00,,,0.00,WUHU21623XXSP,2013-07-21 18:50:00,
2013-07-21 11:55:00,89.4,59.5,29.93,WSW,247,0.0,7.6,37,0.00,,,0.00,WUHU21623XXSP,2013-07-21 18:55:00,
2013-07-21 12:00:00,90.1,59.3,29.93,SSW,202,8.1,8.1,36,0.00,,,0.00,WUHU21623XXSP,2013-07-21 19:00:00,
2013-07-21 12:05:00,88.5,57.9,29.93,South,180,1.3,8.1,36,0.00,,,0.00,WUHU21623XXSP,2013-07-21 19:05:00,
2013-07-21 12:10:00,87.6,57.9,29.93,SW,225,7.4,7.4,37,0.00,,,0.00,WUHU21623XXSP,2013-07-21 19:10:00,
2013-07-21 12:15:00,88.5,58.7,29.93,South,180,8.3,8.3,37,0.00,,,0.00,WUHU21623XXSP,2013-07-21 19:15:00,
2013-07-21 12:20:00,88.5,58.7,29.93,WSW,247,4.0,8.3,37,0.00,,,0.00,WUHU21623XXSP,2013-07-21 19:20:00,
2013-07-21 12:25:00,88.3,58.5,29.93,WSW,247,7.8,7.8,37,0.00,,,0.00,WUHU21623XXSP,2013-07-21 19:25:00,
2013-07-21 12:30:00,87.3,57.6,29.93,WSW,247,7.4,8.9,37,0.00,,,0.00,WUHU21623XXSP,2013-07-21 19:30:00,
2013-07-21 12:35:00,87.1,58.2,29.93,WSW,247,5.4,8.5,38,0.00,,,0.00,WUHU21623XXSP,2013-07-21 19:35:00,
2013-07-21 12:40:00,88.0,59.0,29.93,WSW,247,7.6,7.6,38,0.00,,,0.00,WUHU21623XXSP,2013-07-21 19:40:00,
2013-07-21 12:45:00,88.7,58.9,29.92,WSW,247,0.0,7.6,37,0.00,,,0.00,WUHU21623XXSP,2013-07-21 19:45:00,
2013-07-21 12:50:00,88.7,58.9,29.92,WSW,247,8.1,9.2,37,0.00,,,0.00,WUHU21623XXSP,2013-07-21 19:50:00,
2013-07-21 12:55:00,88.5,58.7,29.92,WSW,247,8.3,9.2,37,0.00,,,0.00,WUHU21623XXSP,2013-07-21 19:55:00,
2013-07-21 13:00:00,88.7,58.9,29.92,WSW,247,8.3,8.3,37,0.00,,,0.00,WUHU21623XXSP,2013-07-21 20:00:00,
2013-07-21 13:05:00,89.2,59.3,29.92,WSW,247,0.0,8.3,37,0.00,,,0.00,WUHU21623XXSP,2013-07-21 20:05:00,
2013-07-21 13:10:00,89.8,59.0,29.92,WSW,247,8.5,8.5,36,0.00,,,0.00,WUHU21623XXSP,2013-07-21 20:10:00,
2013-07-21 13:15:00,88.9,59.0,29.91,WSW,247,0.0,8.5,37,0.00,,,0.00,WUHU21623XXSP,2013-07-21 20:15:00,
2013-07-21 13:20:00,88.5,58.7,29.92,WSW,247,0.0,8.5,37,0.00,,,0.00,WUHU21623XXSP,2013-07-21 20:20:00,
2013-07-21 13:25:00,89.8,59.8,29.91,WSW,247,1.1,7.2,37,0.00,,,0.00,WUHU21623XXSP,2013-07-21 20:25:00,
2013-07-21 13:30:00,90.1,59.3,29.91,WSW,247,7.8,7.8,36,0.00,,,0.00,WUHU21623XXSP,2013-07-21 20:30:00,
2013-07-21 13:35:00,90.0,59.2,29.91,WSW,247,8.3,8.3,36,0.00,,,0.00,WUHU21623XXSP,2013-07-21 20:35:00,
2013-07-21 13:40:00,89.4,58.7,29.91,WSW,247,8.3,8.3,36,0.00,,,0.00,WUHU21623XXSP,2013-07-21 20:40:00,
2013-07-21 13:45:00,89.2,59.3,29.91,WSW,247,3.6,8.3,37,0.00,,,0.00,WUHU21623XXSP,2013-07-21 20:45:00,
2013-07-21 13:50:00,89.8,59.0,29.91,WSW,247,7.4,8.7,36,0.00,,,0.00,WUHU21623XXSP,2013-07-21 20:50:00,
2013-07-21 13:55:00,90.7,59.8,29.91,WSW,247,0.0,8.7,36,0.00,,,0.00,WUHU21623XXSP,2013-07-21 20:55:00,
2013-07-21 14:00:00,91.0,59.3,29.91,WSW,247,12.3,12.3,35,0.00,,,0.00,WUHU21623XXSP,2013-07-21 21:00:00,
2013-07-21 14:05:00,90.7,59.8,29.91,WSW,247,6.9,12.3,36,0.00,,,0.00,WUHU21623XXSP,2013-07-21 21:05:00,
2013-07-21 14:10:00,90.9,60.0,29.91,WSW,247,0.0,8.3,36,0.00,,,0.00,WUHU21623XXSP,2013-07-21 21:10:00,
2013-07-21 14:15:00,90.3,59.5,29.91,WSW,247,6.0,6.3,36,0.00,,,0.00,WUHU21623XXSP,2013-07-21 21:15:00,
2013-07-21 14:20:00,90.5,58.9,29.91,WSW,247,6.5,11.0,35,0.00,,,0.00,WUHU21623XXSP,2013-07-21 21:20:00,
2013-07-21 14:25:00,91.4,59.7,29.91,WSW,247,4.7,11.0,35,0.00,,,0.00,WUHU21623XXSP,2013-07-21 21:25:00,
2013-07-21 14:30:00,91.9,60.1,29.91,WSW,247,9.2,9.2,35,0.00,,,0.00,WUHU21623XXSP,2013-07-21 21:30:00,
2013-07-21 14:35:00,91.8,60.0,29.91,WSW,247,3.4,9.2,35,0.00,,,0.00,WUHU21623XXSP,2013-07-21 21:35:00,
2013-07-21 14:40:00,91.9,60.1,29.91,West,270,0.0,8.5,35,0.00,,,0.00,WUHU21623XXSP,2013-07-21 21:40:00,
2013-07-21 14:45:00,92.5,59.0,29.91,SSW,202,0.0,8.5,33,0.00,,,0.00,WUHU21623XXSP,2013-07-21 21:45:00,
2013-07-21 14:50:00,92.5,60.6,29.91,WSW,247,7.4,7.6,35,0.00,,,0.00,WUHU21623XXSP,2013-07-21 21:50:00,
2013-07-21 14:55:00,92.1,60.3,29.90,SW,225,0.0,7.6,35,0.00,,,0.00,WUHU21623XXSP,2013-07-21 21:55:00,
2013-07-21 15:00:00,92.7,60.0,29.90,West,270,0.0,4.9,34,0.00,,,0.00,WUHU21623XXSP,2013-07-21 22:00:00,
2013-07-21 15:05:00,92.1,58.6,29.89,South,180,8.1,8.1,33,0.00,,,0.00,WUHU21623XXSP,2013-07-21 22:05:00,
2013-07-21 15:10:00,91.2,58.7,29.90,WSW,247,0.0,8.1,34,0.00,,,0.00,WUHU21623XXSP,2013-07-21 22:10:00,
2013-07-21 15:15:00,91.6,58.2,29.89,SW,225,0.0,5.4,33,0.00,,,0.00,WUHU21623XXSP,2013-07-21 22:15:00,
2013-07-21 15:20:00,91.8,60.0,29.89,WSW,247,3.1,5.4,35,0.00,,,0.00,WUHU21623XXSP,2013-07-21 22:20:00,
2013-07-21 15:25:00,92.5,59.8,29.89,WNW,292,4.9,7.8,34,0.00,,,0.00,WUHU21623XXSP,2013-07-21 22:25:00,
2013-07-21 15:30:00,92.8,60.1,29.89,South,180,0.0,7.8,34,0.00,,,0.00,WUHU21623XXSP,2013-07-21 22:30:00,
2013-07-21 15:35:00,91.8,58.3,29.89,SE,135,0.0,7.2,33,0.00,,,0.00,WUHU21623XXSP,2013-07-21 22:35:00,
2013-07-21 15:40:00,92.5,59.0,29.89,SW,225,0.0,8.3,33,0.00,,,0.00,WUHU21623XXSP,2013-07-21 22:40:00,
2013-07-21 15:45:00,92.8,58.3,29.89,WSW,247,8.1,8.3,32,0.00,,,0.00,WUHU21623XXSP,2013-07-21 22:45:00,
2013-07-21 15:50:00,92.3,58.8,29.89,West,270,2.0,8.1,33,0.00,,,0.00,WUHU21623XXSP,2013-07-21 22:50:00,
2013-07-21 15:55:00,93.0,60.2,29.89,WSW,247,2.0,6.7,34,0.00,,,0.00,WUHU21623XXSP,2013-07-21 22:55:00,
2013-07-21 16:00:00,93.4,59.7,29.88,WSW,247,0.0,6.7,33,0.00,,,0.00,WUHU21623XXSP,2013-07-21 23:00:00,
2013-07-21 16:05:00,93.9,61.0,29.88,WSW,247,0.0,4.3,34,0.00,,,0.00,WUHU21623XXSP,2013-07-21 23:05:00,
2013-07-21 16:10:00,94.3,59.7,29.89,WSW,247,7.6,7.6,32,0.00,,,0.00,WUHU21623XXSP,2013-07-21 23:10:00,
2013-07-21 16:15:00,94.6,59.9,29.89,WSW,247,6.5,7.6,32,0.00,,,0.00,WUHU21623XXSP,2013-07-21 23:15:00,
2013-07-21 16:20:00,94.6,59.9,29.88,WSW,247,0.0,7.6,32,0.00,,,0.00,WUHU21623XXSP,2013-07-21 23:20:00,
2013-07-21 16:25:00,94.6,59.9,29.88,WSW,247,7.4,7.4,32,0.00,,,0.00,WUHU21623XXSP,2013-07-21 23:25:00,
2013-07-21 16:30:00,94.6,59.9,29.88,WSW,247,0.0,7.4,32,0.00,,,0.00,WUHU21623XXSP,2013-07-21 23:30:00,
2013-07-21 16:35:00,94.6,59.9,29.88,WSW,247,0.0,6.3,32,0.00,,,0.00,WUHU21623XXSP,2013-07-21 23:35:00,
2013-07-21 16:40:00,93.9,59.3,29.88,WSW,247,0.0,8.1,32,0.00,,,0.00,WUHU21623XXSP,2013-07-21 23:40:00,
2013-07-21 16:42:00,93.7,59.1,29.88,WSW,247,0.0,8.1,32,0.00,,,0.00,WUHU21623XXSP,2013-07-21 23:42:00,
2013-07-21 16:48:00,93.6,59.0,29.88,WSW,247,0.0,7.8,32,0.00,,,0.00,WUHU21623XXSP,2013-07-21 23:48:00,
2013-07-21 16:52:00,93.4,58.9,29.88,WSW,247,6.5,7.8,32,0.00,,,0.00,WUHU21623XXSP,2013-07-21 23:52:00,
2013-07-21 16:59:00,93.9,59.3,29.88,WSW,247,6.9,6.9,32,0.00,,,0.00,WUHU21623XXSP,2013-07-21 23:59:00,
2013-07-21 17:14:00,94.6,59.9,29.87,WSW,247,8.1,8.1,32,0.00,,,0.00,WUHU21623XXSP,2013-07-22 00:14:00,
2013-07-21 17:19:00,94.8,60.1,29.87,WSW,247,4.9,8.1,32,0.00,,,0.00,WUHU21623XXSP,2013-07-22 00:19:00,
2013-07-21 17:24:00,95.5,59.8,29.87,WSW,247,0.0,6.9,31,0.00,,,0.00,WUHU21623XXSP,2013-07-22 00:24:00,
2013-07-21 17:29:00,96.1,60.3,29.87,WSW,247,0.0,6.9,31,0.00,,,0.00,WUHU21623XXSP,2013-07-22 00:29:00,
2013-07-21 17:34:00,95.7,59.0,29.86,WSW,247,0.0,5.6,30,0.00,,,0.00,WUHU21623XXSP,2013-07-22 00:34:00,
2013-07-21 17:39:00,95.9,60.1,29.87,WSW,247,1.8,2.2,31,0.00,,,0.00,WUHU21623XXSP,2013-07-22 00:39:00,
2013-07-21 17:44:00,97.2,60.3,29.87,WSW,247,3.6,3.6,30,0.00,,,0.00,WUHU21623XXSP,2013-07-22 00:44:00,
2013-07-21 17:49:00,98.2,61.2,29.87,WSW,247,0.0,3.6,30,0.00,,,0.00,WUHU21623XXSP,2013-07-22 00:49:00,
2013-07-21 17:54:00,99.1,62.0,29.87,WSW,247,0.0,0.0,30,0.00,,,0.00,WUHU21623XXSP,2013-07-22 00:54:00,
2013-07-21 17:59:00,100.0,61.8,29.86,WSW,247,0.0,1.1,29,0.00,,,0.00,WUHU21623XXSP,2013-07-22 00:59:00,
2013-07-21 18:04:00,100.2,62.0,29.86,WSW,247,0.0,1.1,29,0.00,,,0.00,WUHU21623XXSP,2013-07-22 01:04:00,
2013-07-21 18:09:00,100.2,62.0,29.86,WSW,247,2.7,3.4,29,0.00,,,0.00,WUHU21623XXSP,2013-07-22 01:09:00,
2013-07-21 18:14:00,100.6,63.3,29.87,WSW,247,0.0,3.4,30,0.00,,,0.00,WUHU21623XXSP,2013-07-22 01:14:00,
2013-07-21 18:19:00,100.2,62.9,29.86,WSW,247,8.7,8.7,30,0.00,,,0.00,WUHU21623XXSP,2013-07-22 01:19:00,
2013-07-21 18:24:00,99.7,61.5,29.86,WSW,247,0.0,8.7,29,0.00,,,0.00,WUHU21623XXSP,2013-07-22 01:24:00,
2013-07-21 18:29:00,99.7,62.5,29.86,WSW,247,0.0,7.2,30,0.00,,,0.00,WUHU21623XXSP,2013-07-22 01:29:00,
2013-07-21 18:34:00,99.7,61.5,29.86,WSW,247,0.0,3.8,29,0.00,,,0.00,WUHU21623XXSP,2013-07-22 01:34:00,
2013-07-21 18:39:00,99.9,62.7,29.86,WSW,247,0.0,3.4,30,0.00,,,0.00,WUHU21623XXSP,2013-07-22 01:39:00,
2013-07-21 18:44:00,100.0,62.8,29.86,WSW,247,5.6,5.6,30,0.00,,,0.00,WUHU21623XXSP,2013-07-22 01:44:00,
2013-07-21 18:49:00,99.7,62.5,29.86,WSW,247,7.2,7.2,30,0.00,,,0.00,WUHU21623XXSP,2013-07-22 01:49:00,
2013-07-21 18:54:00,99.1,62.0,29.86,WSW,247,7.6,7.6,30,0.00,,,0.00,WUHU21623XXSP,2013-07-22 01:54:00,
2013-07-21 18:59:00,98.2,61.2,29.86,WSW,247,0.0,7.6,30,0.00,,,0.00,WUHU21623XXSP,2013-07-22 01:59:00,
2013-07-21 19:04:00,98.1,61.1,29.86,WSW,247,1.1,2.9,30,0.00,,,0.00,WUHU21623XXSP,2013-07-22 02:04:00,
2013-07-21 19:09:00,97.7,60.8,29.86,WSW,247,7.2,7.2,30,0.00,,,0.00,WUHU21623XXSP,2013-07-22 02:09:00,
2013-07-21 19:14:00,96.4,60.6,29.86,WSW,247,0.0,7.2,31,0.00,,,0.00,WUHU21623XXSP,2013-07-22 02:14:00,
2013-07-21 19:19:00,95.9,60.1,29.86,WSW,247,0.0,0.0,31,0.00,,,0.00,WUHU21623XXSP,2013-07-22 02:19:00,
2013-07-21 19:24:00,95.5,60.7,29.86,WSW,247,0.0,0.0,32,0.00,,,0.00,WUHU21623XXSP,2013-07-22 02:24:00,
2013-07-21 19:29:00,94.6,59.9,29.86,WSW,247,0.0,1.6,32,0.00,,,0.00,WUHU21623XXSP,2013-07-22 02:29:00,
2013-07-21 19:34:00,93.9,59.3,29.86,WSW,247,0.0,1.6,32,0.00,,,0.00,WUHU21623XXSP,2013-07-22 02:34:00,
2013-07-21 19:39:00,93.2,59.6,29.86,WSW,247,0.0,0.0,33,0.00,,,0.00,WUHU21623XXSP,2013-07-22 02:39:00,
2013-07-21 19:44:00,92.1,58.6,29.86,WSW,247,0.0,0.0,33,0.00,,,0.00,WUHU21623XXSP,2013-07-22 02:44:00,
2013-07-21 19:49:00,91.2,59.5,29.86,WSW,247,0.0,0.0,35,0.00,,,0.00,WUHU21623XXSP,2013-07-22 02:49:00,
2013-07-21 19:54:00,90.3,58.7,29.86,WSW,247,0.0,0.0,35,0.00,,,0.00,WUHU21623XXSP,2013-07-22 02:54:00,
2013-07-21 19:59:00,88.9,58.3,29.86,WSW,247,0.0,0.0,36,0.00,,,0.00,WUHU21623XXSP,2013-07-22 02:59:00,
2013-07-21 20:04:00,87.6,57.9,29.86,WSW,247,0.0,0.0,37,0.00,,,0.00,WUHU21623XXSP,2013-07-22 03:04:00,
2013-07-21 20:09:00,86.7,57.1,29.86,WSW,247,0.0,0.0,37,0.00,,,0.00,WUHU21623XXSP,2013-07-22 03:09:00,
2013-07-21 20:14:00,84.7,56.8,29.86,WSW,247,0.0,0.0,39,0.00,,,0.00,WUHU21623XXSP,2013-07-22 03:14:00,
2013-07-21 20:19:00,83.1,55.4,29.86,WSW,247,0.0,0.0,39,0.00,,,0.00,WUHU21623XXSP,2013-07-22 03:19:00,
2013-07-21 20:24:00,81.7,54.8,29.86,WSW,247,0.0,0.0,40,0.00,,,0.00,WUHU21623XXSP,2013-07-22 03:24:00,
2013-07-21 20:29:00,79.7,54.4,29.86,WSW,247,0.0,0.0,42,0.00,,,0.00,WUHU21623XXSP,2013-07-22 03:29:00,
2013-07-21 20:34:00,78.6,54.1,29.86,WSW,247,0.0,0.0,43,0.00,,,0.00,WUHU21623XXSP,2013-07-22 03:34:00,
2013-07-21 20:39:00,77.7,53.3,29.86,WSW,247,0.0,0.0,43,0.00,,,0.00,WUHU21623XXSP,2013-07-22 03:39:00,
2013-07-21 20:44:00,76.5,54.1,29.86,WSW,247,0.0,0.0,46,0.00,,,0.00,WUHU21623XXSP,2013-07-22 03:44:00,
2013-07-21 20:49:00,75.6,53.9,29.86,WSW,247,0.0,0.0,47,0.00,,,0.00,WUHU21623XXSP,2013-07-22 03:49:00,
2013-07-21 20:54:00,74.8,53.1,29.87,WSW,247,0.0,0.0,47,0.00,,,0.00,WUHU21623XXSP,2013-07-22 03:54:00,
2013-07-21 20:59:00,73.9,52.3,29.87,WSW,247,0.0,0.0,47,0.00,,,0.00,WUHU21623XXSP,2013-07-22 03:59:00,
2013-07-21 21:01:00,73.9,52.3,29.87,WSW,247,0.0,0.0,47,0.00,,,0.00,WUHU21623XXSP,2013-07-22 04:01:00,
2013-07-21 21:03:00,73.6,52.0,29.87,WSW,247,0.0,0.0,47,0.00,,,0.00,WUHU21623XXSP,2013-07-22 04:03:00,
2013-07-21 21:09:00,73.2,51.1,29.87,WSW,247,0.0,0.0,46,0.00,,,0.00,WUHU21623XXSP,2013-07-22 04:09:00,
2013-07-21 21:14:00,73.0,50.9,29.87,WSW,247,0.0,0.0,46,0.00,,,0.00,WUHU21623XXSP,2013-07-22 04:14:00,
2013-07-21 21:20:00,72.7,50.6,29.87,WSW,247,0.0,0.0,46,0.00,,,0.00,WUHU21623XXSP,2013-07-22 04:20:00,
2013-07-21 21:35:00,72.3,50.2,29.87,WSW,247,0.0,0.0,46,0.00,,,0.00,WUHU21623XXSP,2013-07-22 04:35:00,
2013-07-21 21:40:00,72.1,50.1,29.87,WSW,247,0.0,0.0,46,0.00,,,0.00,WUHU21623XXSP,2013-07-22 04:40:00,
2013-07-21 21:45:00,71.8,49.8,29.87,WSW,247,0.0,0.0,46,0.00,,,0.00,WUHU21623XXSP,2013-07-22 04:45:00,
2013-07-21 21:50:00,71.4,50.0,29.86,WSW,247,0.0,0.0,47,0.00,,,0.00,WUHU21623XXSP,2013-07-22 04:50:00,
2013-07-21 21:55:00,71.2,49.8,29.87,WSW,247,0.0,0.0,47,0.00,,,0.00,WUHU21623XXSP,2013-07-22 04:55:00,
2013-07-21 22:00:00,70.9,49.6,29.87,WSW,247,0.0,0.0,47,0.00,,,0.00,WUHU21623XXSP,2013-07-22 05:00:00,
2013-07-21 22:05:00,70.7,49.4,29.87,WSW,247,0.0,0.0,47,0.00,,,0.00,WUHU21623XXSP,2013-07-22 05:05:00,
2013-07-21 22:10:00,70.5,48.6,29.87,WSW,247,0.0,0.0,46,0.00,,,0.00,WUHU21623XXSP,2013-07-22 05:10:00,
2013-07-21 22:15:00,70.3,48.4,29.87,WSW,247,0.0,0.0,46,0.00,,,0.00,WUHU21623XXSP,2013-07-22 05:15:00,
2013-07-21 22:20:00,70.7,48.8,29.87,WSW,247,0.0,0.0,46,0.00,,,0.00,WUHU21623XXSP,2013-07-22 05:20:00,
2013-07-21 22:25:00,70.9,49.0,29.87,WSW,247,1.1,1.1,46,0.00,,,0.00,WUHU21623XXSP,2013-07-22 05:25:00,
2013-07-21 22:30:00,70.9,48.3,29.87,WSW,247,1.1,1.1,45,0.00,,,0.00,WUHU21623XXSP,2013-07-22 05:30:00,
2013-07-21 22:35:00,70.9,48.3,29.87,WSW,247,0.0,1.1,45,0.00,,,0.00,WUHU21623XXSP,2013-07-22 05:35:00,
2013-07-21 22:40:00,70.9,48.3,29.87,WSW,247,0.0,0.0,45,0.00,,,0.00,WUHU21623XXSP,2013-07-22 05:40:00,
2013-07-21 22:45:00,70.9,48.3,29.86,WSW,247,0.0,0.0,45,0.00,,,0.00,WUHU21623XXSP,2013-07-22 05:45:00,
2013-07-21 22:50:00,70.9,48.3,29.86,WSW,247,0.0,0.0,45,0.00,,,0.00,WUHU21623XXSP,2013-07-22 05:50:00,
2013-07-21 22:55:00,70.9,48.3,29.86,WSW,247,0.0,0.0,45,0.00,,,0.00,WUHU21623XXSP,2013-07-22 05:55:00,
2013-07-21 23:00:00,70.7,48.2,29.86,WSW,247,0.0,0.0,45,0.00,,,0.00,WUHU21623XXSP,2013-07-22 06:00:00,
2013-07-21 23:05:00,70.3,47.8,29.87,WSW,247,0.0,0.0,45,0.00,,,0.00,WUHU21623XXSP,2013-07-22 06:05:00,
2013-07-21 23:10:00,70.2,48.3,29.87,WSW,247,0.0,0.0,46,0.00,,,0.00,WUHU21623XXSP,2013-07-22 06:10:00,
2013-07-21 23:15:00,69.8,47.9,29.87,WSW,247,0.0,0.0,46,0.00,,,0.00,WUHU21623XXSP,2013-07-22 06:15:00,
2013-07-21 23:20:00,69.6,47.8,29.86,WSW,247,0.0,0.0,46,0.00,,,0.00,WUHU21623XXSP,2013-07-22 06:20:00,
2013-07-21 23:26:00,69.3,47.5,29.87,WSW,247,0.0,0.0,46,0.00,,,0.00,WUHU21623XXSP,2013-07-22 06:26:00,
2013-07-21 23:31:00,68.9,47.1,29.87,WSW,247,0.0,0.0,46,0.00,,,0.00,WUHU21623XXSP,2013-07-22 06:31:00,
2013-07-21 23:36:00,68.7,46.9,29.86,WSW,247,0.0,0.0,46,0.00,,,0.00,WUHU21623XXSP,2013-07-22 06:36:00,
2013-07-21 23:41:00,68.7,46.9,29.87,WSW,247,0.0,0.0,46,0.00,,,0.00,WUHU21623XXSP,2013-07-22 06:41:00,
2013-07-21 23:43:00,68.7,46.9,29.86,WSW,247,0.0,0.0,46,0.00,,,0.00,WUHU21623XXSP,2013-07-22 06:43:00,
2013-07-21 23:47:00,68.7,47.5,29.86,WSW,247,0.0,0.0,47,0.00,,,0.00,WUHU21623XXSP,2013-07-22 06:47:00,
2013-07-21 23:54:00,68.7,46.9,29.87,WSW,247,0.0,0.0,46,0.00,,,0.00,WUHU21623XXSP,2013-07-22 06:54:00,